sensor_id;sensor_type;location;lat;lon;timestamp;pressure;altitude;pressure_sealevel;temperature;humidity
4598;BME280;62772;48.646;8.906;2023-04-05T00:02:01;96738.44;;;-1.82;100.00
4598;BME280;62772;48.646;8.906;2023-04-05T00:07:02;96735.91;;;-1.39;100.00
4598;BME280;62772;48.646;8.906;2023-04-05T00:12:07;96730.09;;;-1.72;100.00
4598;BME280;62772;48.646;8.906;2023-04-05T00:17:08;96729.03;;;-1.71;100.00
4598;BME280;62772;48.646;8.906;2023-04-05T00:22:09;96718.31;;;-1.51;100.00
4598;BME280;62772;48.646;8.906;2023-04-05T00:27:12;96712.41;;;-1.76;100.00
4598;BME280;62772;48.646;8.906;2023-04-05T00:32:13;96708.16;;;-1.59;100.00
4598;BME280;62772;48.646;8.906;2023-04-05T00:37:13;96705.00;;;-1.79;100.00
4598;BME280;62772;48.646;8.906;2023-04-05T00:42:14;96710.91;;;-2.03;100.00
4598;BME280;62772;48.646;8.906;2023-04-05T00:47:14;96706.03;;;-2.36;100.00
4598;BME280;62772;48.646;8.906;2023-04-05T00:52:16;96694.09;;;-2.50;100.00
4598;BME280;62772;48.646;8.906;2023-04-05T00:57:17;96696.16;;;-1.97;100.00
4598;BME280;62772;48.646;8.906;2023-04-05T01:07:45;96680.41;;;-2.27;100.00
4598;BME280;62772;48.646;8.906;2023-04-05T01:12:50;96675.13;;;-1.60;100.00
4598;BME280;62772;48.646;8.906;2023-04-05T01:17:51;96668.59;;;-1.99;100.00
4598;BME280;62772;48.646;8.906;2023-04-05T01:23:20;96658.91;;;-1.99;100.00
4598;BME280;62772;48.646;8.906;2023-04-05T01:38:58;96652.63;;;-2.65;100.00
4598;BME280;62772;48.646;8.906;2023-04-05T01:44:00;96655.75;;;-2.75;100.00
4598;BME280;62772;48.646;8.906;2023-04-05T01:49:03;96647.00;;;-2.87;100.00
4598;BME280;62772;48.646;8.906;2023-04-05T01:54:04;96644.97;;;-2.85;100.00
4598;BME280;62772;48.646;8.906;2023-04-05T01:59:05;96637.16;;;-2.48;100.00
4598;BME280;62772;48.646;8.906;2023-04-05T02:04:05;96633.78;;;-2.00;100.00
4598;BME280;62772;48.646;8.906;2023-04-05T02:09:05;96632.16;;;-2.01;100.00
4598;BME280;62772;48.646;8.906;2023-04-05T02:14:06;96634.56;;;-2.18;100.00
4598;BME280;62772;48.646;8.906;2023-04-05T02:19:06;96632.44;;;-1.91;100.00
4598;BME280;62772;48.646;8.906;2023-04-05T02:24:07;96622.50;;;-2.49;100.00
4598;BME280;62772;48.646;8.906;2023-04-05T02:29:07;96628.22;;;-1.92;100.00
4598;BME280;62772;48.646;8.906;2023-04-05T02:34:08;96619.88;;;-2.49;100.00
4598;BME280;62772;48.646;8.906;2023-04-05T02:39:10;96623.28;;;-2.67;100.00
4598;BME280;62772;48.646;8.906;2023-04-05T02:44:12;96624.28;;;-2.87;100.00
4598;BME280;62772;48.646;8.906;2023-04-05T02:49:13;96608.59;;;-2.50;100.00
4598;BME280;62772;48.646;8.906;2023-04-05T02:54:13;96617.41;;;-2.44;100.00
4598;BME280;62772;48.646;8.906;2023-04-05T02:59:15;96626.28;;;-3.07;100.00
4598;BME280;62772;48.646;8.906;2023-04-05T03:04:17;96620.06;;;-3.06;100.00
4598;BME280;62772;48.646;8.906;2023-04-05T03:09:18;96619.97;;;-2.56;100.00
4598;BME280;62772;48.646;8.906;2023-04-05T03:14:23;96616.22;;;-2.30;100.00
4598;BME280;62772;48.646;8.906;2023-04-05T03:19:24;96618.50;;;-2.03;100.00
4598;BME280;62772;48.646;8.906;2023-04-05T03:24:30;96616.25;;;-2.18;100.00
4598;BME280;62772;48.646;8.906;2023-04-05T03:29:34;96611.31;;;-2.75;100.00
4598;BME280;62772;48.646;8.906;2023-04-05T03:34:42;96609.59;;;-2.32;100.00
4598;BME280;62772;48.646;8.906;2023-04-05T03:39:45;96609.59;;;-2.32;100.00
4598;BME280;62772;48.646;8.906;2023-04-05T03:44:47;96606.53;;;-2.29;100.00
4598;BME280;62772;48.646;8.906;2023-04-05T03:49:47;96614.91;;;-2.39;100.00
4598;BME280;62772;48.646;8.906;2023-04-05T03:54:48;96612.25;;;-2.51;100.00
4598;BME280;62772;48.646;8.906;2023-04-05T03:59:53;96611.03;;;-3.11;100.00
4598;BME280;62772;48.646;8.906;2023-04-05T04:04:54;96609.41;;;-2.68;100.00
4598;BME280;62772;48.646;8.906;2023-04-05T04:09:54;96606.34;;;-3.02;100.00
4598;BME280;62772;48.646;8.906;2023-04-05T04:14:56;96607.91;;;-3.44;100.00
4598;BME280;62772;48.646;8.906;2023-04-05T04:20:12;96606.84;;;-3.62;100.00
4598;BME280;62772;48.646;8.906;2023-04-05T04:25:30;96595.84;;;-3.20;100.00
4598;BME280;62772;48.646;8.906;2023-04-05T04:30:45;96597.94;;;-3.54;100.00
4598;BME280;62772;48.646;8.906;2023-04-05T04:36:06;96597.59;;;-3.58;100.00
4598;BME280;62772;48.646;8.906;2023-04-05T04:41:26;96596.28;;;-3.74;100.00
4598;BME280;62772;48.646;8.906;2023-04-05T04:46:33;96590.53;;;-3.57;100.00
4598;BME280;62772;48.646;8.906;2023-04-05T04:51:47;96603.31;;;-3.74;100.00
4598;BME280;62772;48.646;8.906;2023-04-05T04:56:47;96601.69;;;-4.07;100.00
4598;BME280;62772;48.646;8.906;2023-04-05T05:01:48;96603.69;;;-4.48;100.00
4598;BME280;62772;48.646;8.906;2023-04-05T05:06:52;96608.34;;;-4.50;100.00
4598;BME280;62772;48.646;8.906;2023-04-05T05:11:53;96607.56;;;-4.12;100.00
4598;BME280;62772;48.646;8.906;2023-04-05T05:16:55;96621.25;;;-3.85;100.00
4598;BME280;62772;48.646;8.906;2023-04-05T05:22:01;96613.88;;;-3.62;100.00
4598;BME280;62772;48.646;8.906;2023-04-05T05:27:01;96612.44;;;-3.08;100.00
4598;BME280;62772;48.646;8.906;2023-04-05T05:32:02;96609.47;;;-3.37;100.00
4598;BME280;62772;48.646;8.906;2023-04-05T05:37:03;96608.25;;;-3.59;100.00
4598;BME280;62772;48.646;8.906;2023-04-05T05:42:03;96613.84;;;-3.88;100.00
4598;BME280;62772;48.646;8.906;2023-04-05T05:47:03;96610.91;;;-3.73;100.00
4598;BME280;62772;48.646;8.906;2023-04-05T05:52:04;96617.00;;;-3.54;100.00
4598;BME280;62772;48.646;8.906;2023-04-05T05:57:05;96618.09;;;-3.11;100.00
4598;BME280;62772;48.646;8.906;2023-04-05T06:02:06;96612.09;;;-2.75;100.00
4598;BME280;62772;48.646;8.906;2023-04-05T06:07:06;96617.75;;;-2.41;100.00
4598;BME280;62772;48.646;8.906;2023-04-05T06:12:07;96624.28;;;-2.50;100.00
4598;BME280;62772;48.646;8.906;2023-04-05T06:17:07;96617.59;;;-2.27;100.00
4598;BME280;62772;48.646;8.906;2023-04-05T06:22:08;96615.03;;;-2.15;100.00
4598;BME280;62772;48.646;8.906;2023-04-05T06:27:08;96612.31;;;-2.58;100.00
4598;BME280;62772;48.646;8.906;2023-04-05T06:32:09;96615.66;;;-2.32;100.00
4598;BME280;62772;48.646;8.906;2023-04-05T06:37:09;96621.69;;;-2.01;100.00
4598;BME280;62772;48.646;8.906;2023-04-05T06:42:10;96615.13;;;-1.92;100.00
4598;BME280;62772;48.646;8.906;2023-04-05T06:47:17;96619.06;;;-2.01;100.00
4598;BME280;62772;48.646;8.906;2023-04-05T06:52:18;96623.50;;;-1.71;100.00
4598;BME280;62772;48.646;8.906;2023-04-05T06:57:18;96630.50;;;-1.53;100.00
4598;BME280;62772;48.646;8.906;2023-04-05T07:02:20;96622.72;;;-1.60;100.00
4598;BME280;62772;48.646;8.906;2023-04-05T07:07:20;96628.38;;;-1.33;100.00
4598;BME280;62772;48.646;8.906;2023-04-05T07:12:21;96626.44;;;-1.25;100.00
4598;BME280;62772;48.646;8.906;2023-04-05T07:17:21;96625.28;;;-1.18;100.00
4598;BME280;62772;48.646;8.906;2023-04-05T07:22:22;96634.09;;;-0.88;100.00
4598;BME280;62772;48.646;8.906;2023-04-05T07:27:22;96630.53;;;-0.94;100.00
4598;BME280;62772;48.646;8.906;2023-04-05T07:32:23;96632.72;;;-0.91;100.00
4598;BME280;62772;48.646;8.906;2023-04-05T07:37:23;96627.69;;;-0.69;100.00
4598;BME280;62772;48.646;8.906;2023-04-05T07:42:23;96630.78;;;-0.72;100.00
4598;BME280;62772;48.646;8.906;2023-04-05T07:47:24;96639.06;;;-0.40;100.00
4598;BME280;62772;48.646;8.906;2023-04-05T07:52:25;96637.13;;;-0.44;100.00
4598;BME280;62772;48.646;8.906;2023-04-05T07:57:25;96631.38;;;-0.29;100.00
4598;BME280;62772;48.646;8.906;2023-04-05T08:02:26;96632.03;;;-0.10;100.00
4598;BME280;62772;48.646;8.906;2023-04-05T08:07:26;96634.22;;;-0.19;100.00
4598;BME280;62772;48.646;8.906;2023-04-05T08:12:29;96630.00;;;0.09;100.00
4598;BME280;62772;48.646;8.906;2023-04-05T08:17:29;96638.66;;;0.38;100.00
4598;BME280;62772;48.646;8.906;2023-04-05T08:22:30;96636.47;;;0.47;97.92
4598;BME280;62772;48.646;8.906;2023-04-05T08:27:30;96640.53;;;0.54;94.27
4598;BME280;62772;48.646;8.906;2023-04-05T08:32:31;96631.06;;;0.70;83.54
4598;BME280;62772;48.646;8.906;2023-04-05T08:37:35;96633.84;;;0.81;81.86
4598;BME280;62772;48.646;8.906;2023-04-05T08:42:46;96638.56;;;0.96;79.74
4598;BME280;62772;48.646;8.906;2023-04-05T08:47:51;96641.81;;;1.20;71.47
4598;BME280;62772;48.646;8.906;2023-04-05T08:52:53;96639.41;;;1.35;71.39
4598;BME280;62772;48.646;8.906;2023-04-05T08:57:55;96637.50;;;1.31;64.68
4598;BME280;62772;48.646;8.906;2023-04-05T09:02:58;96627.91;;;1.63;68.00
4598;BME280;62772;48.646;8.906;2023-04-05T09:08:02;96626.41;;;1.51;64.41
4598;BME280;62772;48.646;8.906;2023-04-05T09:13:02;96628.81;;;1.52;64.73
4598;BME280;62772;48.646;8.906;2023-04-05T09:18:03;96628.63;;;1.81;66.91
4598;BME280;62772;48.646;8.906;2023-04-05T09:23:03;96630.03;;;2.38;62.12
4598;BME280;62772;48.646;8.906;2023-04-05T09:28:08;96625.28;;;2.40;62.93
4598;BME280;62772;48.646;8.906;2023-04-05T09:33:09;96626.81;;;2.31;61.50
4598;BME280;62772;48.646;8.906;2023-04-05T09:38:09;96624.38;;;2.51;60.25
4598;BME280;62772;48.646;8.906;2023-04-05T09:43:12;96625.00;;;2.36;59.71
4598;BME280;62772;48.646;8.906;2023-04-05T09:48:13;96623.19;;;2.69;59.72
4598;BME280;62772;48.646;8.906;2023-04-05T09:53:13;96623.66;;;2.61;60.14
4598;BME280;62772;48.646;8.906;2023-04-05T09:58:21;96620.63;;;2.80;60.05
4598;BME280;62772;48.646;8.906;2023-04-05T10:03:24;96616.78;;;2.93;57.21
4598;BME280;62772;48.646;8.906;2023-04-05T10:08:25;96615.25;;;3.02;56.33
4598;BME280;62772;48.646;8.906;2023-04-05T10:13:28;96614.44;;;2.96;55.09
4598;BME280;62772;48.646;8.906;2023-04-05T10:18:39;96604.56;;;3.19;56.34
4598;BME280;62772;48.646;8.906;2023-04-05T10:23:43;96597.69;;;3.23;55.74
4598;BME280;62772;48.646;8.906;2023-04-05T10:28:46;96587.19;;;3.28;54.32
4598;BME280;62772;48.646;8.906;2023-04-05T10:33:55;96594.38;;;3.38;53.15
4598;BME280;62772;48.646;8.906;2023-04-05T10:39:03;96594.72;;;3.57;51.83
4598;BME280;62772;48.646;8.906;2023-04-05T10:44:04;96594.09;;;3.34;52.78
4598;BME280;62772;48.646;8.906;2023-04-05T10:49:15;96593.13;;;3.61;53.11
4598;BME280;62772;48.646;8.906;2023-04-05T10:54:18;96601.06;;;3.61;51.47
4598;BME280;62772;48.646;8.906;2023-04-05T10:59:20;96591.00;;;3.58;50.38
4598;BME280;62772;48.646;8.906;2023-04-05T11:04:21;96581.38;;;3.94;49.97
4598;BME280;62772;48.646;8.906;2023-04-05T11:09:22;96581.41;;;3.99;51.21
4598;BME280;62772;48.646;8.906;2023-04-05T11:19:48;96572.13;;;3.92;49.60
4598;BME280;62772;48.646;8.906;2023-04-05T11:25:00;96568.97;;;3.90;50.32
4598;BME280;62772;48.646;8.906;2023-04-05T11:30:04;96555.50;;;4.07;50.63
4598;BME280;62772;48.646;8.906;2023-04-05T11:35:07;96557.59;;;3.94;50.40
4598;BME280;62772;48.646;8.906;2023-04-05T11:40:43;96553.16;;;4.31;49.60
4598;BME280;62772;48.646;8.906;2023-04-05T11:45:43;96552.06;;;4.11;49.38
4598;BME280;62772;48.646;8.906;2023-04-05T11:50:46;96542.84;;;4.19;50.11
4598;BME280;62772;48.646;8.906;2023-04-05T11:55:49;96551.84;;;4.33;49.55
4598;BME280;62772;48.646;8.906;2023-04-05T12:01:03;96546.81;;;4.27;48.36
4598;BME280;62772;48.646;8.906;2023-04-05T12:06:05;96542.06;;;4.24;47.05
4598;BME280;62772;48.646;8.906;2023-04-05T12:11:07;96532.78;;;4.26;46.49
4598;BME280;62772;48.646;8.906;2023-04-05T12:16:08;96521.72;;;4.34;46.78
4598;BME280;62772;48.646;8.906;2023-04-05T12:21:09;96522.50;;;4.56;46.79
4598;BME280;62772;48.646;8.906;2023-04-05T12:26:10;96515.84;;;4.79;46.88
4598;BME280;62772;48.646;8.906;2023-04-05T12:31:10;96515.31;;;4.61;46.19
4598;BME280;62772;48.646;8.906;2023-04-05T12:36:12;96509.53;;;4.69;44.69
4598;BME280;62772;48.646;8.906;2023-04-05T12:41:13;96513.19;;;4.84;45.37
4598;BME280;62772;48.646;8.906;2023-04-05T12:46:17;96507.09;;;4.88;44.97
4598;BME280;62772;48.646;8.906;2023-04-05T12:51:17;96494.63;;;4.94;45.81
4598;BME280;62772;48.646;8.906;2023-04-05T12:56:18;96492.25;;;4.98;45.17
4598;BME280;62772;48.646;8.906;2023-04-05T13:01:18;96493.63;;;4.90;46.16
4598;BME280;62772;48.646;8.906;2023-04-05T13:12:22;96487.66;;;5.29;45.88
4598;BME280;62772;48.646;8.906;2023-04-05T13:17:22;96472.56;;;5.24;44.61
4598;BME280;62772;48.646;8.906;2023-04-05T13:22:23;96475.03;;;5.66;46.00
4598;BME280;62772;48.646;8.906;2023-04-05T13:27:23;96473.84;;;5.42;44.61
4598;BME280;62772;48.646;8.906;2023-04-05T13:32:24;96465.91;;;5.32;44.34
4598;BME280;62772;48.646;8.906;2023-04-05T13:37:25;96460.59;;;5.37;44.31
4598;BME280;62772;48.646;8.906;2023-04-05T13:42:25;96449.56;;;5.25;43.81
4598;BME280;62772;48.646;8.906;2023-04-05T13:47:26;96442.09;;;5.32;45.33
4598;BME280;62772;48.646;8.906;2023-04-05T13:52:26;96450.72;;;5.53;43.67
4598;BME280;62772;48.646;8.906;2023-04-05T13:57:27;96442.75;;;5.53;43.28
4598;BME280;62772;48.646;8.906;2023-04-05T14:02:27;96438.63;;;5.81;44.23
4598;BME280;62772;48.646;8.906;2023-04-05T14:07:28;96429.94;;;5.76;44.10
4598;BME280;62772;48.646;8.906;2023-04-05T14:12:28;96425.03;;;5.93;44.60
4598;BME280;62772;48.646;8.906;2023-04-05T14:17:30;96424.16;;;6.08;43.96
4598;BME280;62772;48.646;8.906;2023-04-05T14:22:31;96425.19;;;6.07;43.20
4598;BME280;62772;48.646;8.906;2023-04-05T14:27:31;96418.56;;;6.10;42.82
4598;BME280;62772;48.646;8.906;2023-04-05T14:32:31;96419.44;;;5.95;42.87
4598;BME280;62772;48.646;8.906;2023-04-05T14:37:32;96414.69;;;5.92;42.22
4598;BME280;62772;48.646;8.906;2023-04-05T14:42:32;96407.53;;;5.92;42.33
4598;BME280;62772;48.646;8.906;2023-04-05T14:47:33;96408.84;;;6.00;42.83
4598;BME280;62772;48.646;8.906;2023-04-05T14:52:33;96410.41;;;5.96;41.39
4598;BME280;62772;48.646;8.906;2023-04-05T14:57:34;96397.34;;;6.10;43.78
4598;BME280;62772;48.646;8.906;2023-04-05T15:02:35;96396.69;;;6.23;43.46
4598;BME280;62772;48.646;8.906;2023-04-05T15:07:36;96397.50;;;6.24;42.29
4598;BME280;62772;48.646;8.906;2023-04-05T15:12:36;96394.84;;;6.24;42.04
4598;BME280;62772;48.646;8.906;2023-04-05T15:17:37;96393.41;;;6.37;43.36
4598;BME280;62772;48.646;8.906;2023-04-05T15:22:38;96390.75;;;6.37;44.15
4598;BME280;62772;48.646;8.906;2023-04-05T15:27:40;96395.16;;;6.46;44.60
4598;BME280;62772;48.646;8.906;2023-04-05T15:32:40;96386.09;;;6.47;44.33
4598;BME280;62772;48.646;8.906;2023-04-05T15:37:40;96393.97;;;6.58;44.43
4598;BME280;62772;48.646;8.906;2023-04-05T15:42:41;96382.81;;;6.31;44.56
4598;BME280;62772;48.646;8.906;2023-04-05T15:47:41;96384.97;;;6.53;44.22
4598;BME280;62772;48.646;8.906;2023-04-05T15:52:42;96388.44;;;6.25;43.05
4598;BME280;62772;48.646;8.906;2023-04-05T15:57:43;96390.66;;;6.17;43.12
4598;BME280;62772;48.646;8.906;2023-04-05T16:02:43;96388.81;;;6.42;43.27
4598;BME280;62772;48.646;8.906;2023-04-05T16:07:43;96388.50;;;6.20;44.34
4598;BME280;62772;48.646;8.906;2023-04-05T16:12:44;96379.78;;;6.43;43.88
4598;BME280;62772;48.646;8.906;2023-04-05T16:17:44;96385.53;;;6.50;45.03
4598;BME280;62772;48.646;8.906;2023-04-05T16:22:45;96378.50;;;6.41;44.04
4598;BME280;62772;48.646;8.906;2023-04-05T16:27:45;96382.13;;;6.50;44.70
4598;BME280;62772;48.646;8.906;2023-04-05T16:32:48;96382.78;;;6.37;44.25
4598;BME280;62772;48.646;8.906;2023-04-05T16:37:49;96387.75;;;6.43;46.58
4598;BME280;62772;48.646;8.906;2023-04-05T16:42:50;96384.97;;;6.29;45.68
4598;BME280;62772;48.646;8.906;2023-04-05T16:47:50;96394.03;;;6.23;47.84
4598;BME280;62772;48.646;8.906;2023-04-05T16:52:51;96393.72;;;6.01;49.10
4598;BME280;62772;48.646;8.906;2023-04-05T16:57:51;96396.03;;;6.07;49.09
4598;BME280;62772;48.646;8.906;2023-04-05T17:02:56;96402.75;;;5.94;49.84
4598;BME280;62772;48.646;8.906;2023-04-05T17:07:56;96404.53;;;5.70;50.32
4598;BME280;62772;48.646;8.906;2023-04-05T17:12:57;96408.69;;;5.81;50.05
4598;BME280;62772;48.646;8.906;2023-04-05T17:17:57;96413.84;;;5.62;51.04
4598;BME280;62772;48.646;8.906;2023-04-05T17:22:57;96411.38;;;5.71;50.57
4598;BME280;62772;48.646;8.906;2023-04-05T17:27:58;96421.47;;;5.69;50.04
4598;BME280;62772;48.646;8.906;2023-04-05T17:32:59;96422.03;;;5.66;49.85
4598;BME280;62772;48.646;8.906;2023-04-05T17:38:00;96426.63;;;5.50;50.08
4598;BME280;62772;48.646;8.906;2023-04-05T17:43:02;96426.91;;;5.48;50.82
4598;BME280;62772;48.646;8.906;2023-04-05T17:48:03;96424.53;;;5.47;50.28
4598;BME280;62772;48.646;8.906;2023-04-05T17:53:04;96424.59;;;5.31;50.54
4598;BME280;62772;48.646;8.906;2023-04-05T17:58:04;96414.94;;;5.06;50.62
4598;BME280;62772;48.646;8.906;2023-04-05T18:03:05;96420.69;;;5.18;50.24
4598;BME280;62772;48.646;8.906;2023-04-05T18:08:05;96424.00;;;4.84;50.81
4598;BME280;62772;48.646;8.906;2023-04-05T18:13:06;96428.44;;;4.99;50.51
4598;BME280;62772;48.646;8.906;2023-04-05T18:18:06;96422.94;;;4.90;51.01
4598;BME280;62772;48.646;8.906;2023-04-05T18:23:07;96431.69;;;4.76;52.12
4598;BME280;62772;48.646;8.906;2023-04-05T18:28:07;96440.19;;;4.67;52.88
4598;BME280;62772;48.646;8.906;2023-04-05T18:33:09;96444.22;;;4.34;52.36
4598;BME280;62772;48.646;8.906;2023-04-05T18:38:09;96450.84;;;3.85;54.51
4598;BME280;62772;48.646;8.906;2023-04-05T18:43:09;96451.03;;;3.58;55.67
4598;BME280;62772;48.646;8.906;2023-04-05T18:48:10;96457.59;;;3.35;58.11
4598;BME280;62772;48.646;8.906;2023-04-05T18:53:10;96461.94;;;2.98;64.08
4598;BME280;62772;48.646;8.906;2023-04-05T18:58:11;96472.00;;;2.53;75.65
4598;BME280;62772;48.646;8.906;2023-04-05T19:03:11;96476.38;;;2.05;84.74
4598;BME280;62772;48.646;8.906;2023-04-05T19:08:12;96480.34;;;1.75;86.09
4598;BME280;62772;48.646;8.906;2023-04-05T19:13:13;96480.72;;;1.62;87.45
4598;BME280;62772;48.646;8.906;2023-04-05T19:18:13;96481.88;;;1.71;87.66
4598;BME280;62772;48.646;8.906;2023-04-05T19:23:14;96488.63;;;2.59;81.31
4598;BME280;62772;48.646;8.906;2023-04-05T19:28:15;96482.84;;;1.92;85.65
4598;BME280;62772;48.646;8.906;2023-04-05T19:33:16;96483.50;;;2.10;85.35
4598;BME280;62772;48.646;8.906;2023-04-05T19:38:19;96483.50;;;1.77;88.19
4598;BME280;62772;48.646;8.906;2023-04-05T19:43:20;96481.75;;;1.12;94.99
4598;BME280;62772;48.646;8.906;2023-04-05T19:48:46;96489.66;;;0.72;94.90
4598;BME280;62772;48.646;8.906;2023-04-05T19:53:48;96483.97;;;0.42;99.82
4598;BME280;62772;48.646;8.906;2023-04-05T19:59:01;96493.28;;;0.32;96.86
4598;BME280;62772;48.646;8.906;2023-04-05T20:04:22;96486.28;;;0.04;100.00
4598;BME280;62772;48.646;8.906;2023-04-05T20:09:25;96491.47;;;-0.01;100.00
4598;BME280;62772;48.646;8.906;2023-04-05T20:14:27;96489.47;;;0.06;100.00
4598;BME280;62772;48.646;8.906;2023-04-05T20:19:30;96492.81;;;0.18;100.00
4598;BME280;62772;48.646;8.906;2023-04-05T20:24:31;96492.25;;;-0.01;100.00
4598;BME280;62772;48.646;8.906;2023-04-05T20:29:31;96491.69;;;0.87;96.43
4598;BME280;62772;48.646;8.906;2023-04-05T20:34:36;96497.34;;;0.96;98.43
4598;BME280;62772;48.646;8.906;2023-04-05T20:39:42;96502.69;;;0.28;100.00
4598;BME280;62772;48.646;8.906;2023-04-05T20:44:43;96496.81;;;-0.25;100.00
4598;BME280;62772;48.646;8.906;2023-04-05T20:49:45;96493.09;;;-0.58;100.00
4598;BME280;62772;48.646;8.906;2023-04-05T20:54:46;96499.41;;;-0.70;100.00
4598;BME280;62772;48.646;8.906;2023-04-05T20:59:48;96497.81;;;-0.71;100.00
4598;BME280;62772;48.646;8.906;2023-04-05T21:04:49;96490.03;;;-0.66;100.00
4598;BME280;62772;48.646;8.906;2023-04-05T21:09:50;96493.84;;;0.01;100.00
4598;BME280;62772;48.646;8.906;2023-04-05T21:14:50;96500.44;;;0.03;100.00
4598;BME280;62772;48.646;8.906;2023-04-05T21:19:51;96511.78;;;-0.54;100.00
4598;BME280;62772;48.646;8.906;2023-04-05T21:24:51;96503.94;;;-1.06;100.00
4598;BME280;62772;48.646;8.906;2023-04-05T21:29:54;96499.34;;;-0.99;100.00
4598;BME280;62772;48.646;8.906;2023-04-05T21:34:55;96501.97;;;-0.87;100.00
4598;BME280;62772;48.646;8.906;2023-04-05T21:39:55;96498.75;;;-0.78;100.00
4598;BME280;62772;48.646;8.906;2023-04-05T21:44:56;96499.41;;;-1.11;100.00
4598;BME280;62772;48.646;8.906;2023-04-05T21:49:57;96494.75;;;-0.68;100.00
4598;BME280;62772;48.646;8.906;2023-04-05T21:54:57;96492.41;;;-0.07;100.00
4598;BME280;62772;48.646;8.906;2023-04-05T21:59:58;96484.88;;;0.30;99.49
4598;BME280;62772;48.646;8.906;2023-04-05T22:04:59;96489.63;;;-0.46;100.00
4598;BME280;62772;48.646;8.906;2023-04-05T22:09:59;96482.31;;;-1.25;100.00
4598;BME280;62772;48.646;8.906;2023-04-05T22:15:00;96492.22;;;-1.51;100.00
4598;BME280;62772;48.646;8.906;2023-04-05T22:20:00;96491.44;;;-1.63;100.00
4598;BME280;62772;48.646;8.906;2023-04-05T22:25:01;96487.81;;;-1.51;100.00
4598;BME280;62772;48.646;8.906;2023-04-05T22:30:02;96483.50;;;-0.64;100.00
4598;BME280;62772;48.646;8.906;2023-04-05T22:35:03;96487.84;;;-0.12;100.00
4598;BME280;62772;48.646;8.906;2023-04-05T22:40:04;96482.19;;;-0.78;100.00
4598;BME280;62772;48.646;8.906;2023-04-05T22:45:04;96482.94;;;-0.95;100.00
4598;BME280;62772;48.646;8.906;2023-04-05T22:50:07;96477.03;;;-0.61;100.00
4598;BME280;62772;48.646;8.906;2023-04-05T22:55:07;96475.13;;;-1.18;100.00
4598;BME280;62772;48.646;8.906;2023-04-05T23:00:08;96484.25;;;-0.80;100.00
4598;BME280;62772;48.646;8.906;2023-04-05T23:05:09;96474.09;;;-0.77;100.00
4598;BME280;62772;48.646;8.906;2023-04-05T23:10:10;96472.75;;;-1.32;100.00
4598;BME280;62772;48.646;8.906;2023-04-05T23:15:11;96475.38;;;-1.67;100.00
4598;BME280;62772;48.646;8.906;2023-04-05T23:20:11;96482.66;;;-1.34;100.00
4598;BME280;62772;48.646;8.906;2023-04-05T23:25:12;96478.44;;;-1.47;100.00
4598;BME280;62772;48.646;8.906;2023-04-05T23:30:13;96487.31;;;-1.83;100.00
4598;BME280;62772;48.646;8.906;2023-04-05T23:35:14;96470.38;;;-1.33;100.00
4598;BME280;62772;48.646;8.906;2023-04-05T23:40:15;96472.06;;;-1.74;100.00
4598;BME280;62772;48.646;8.906;2023-04-05T23:45:15;96475.00;;;-1.35;100.00
4598;BME280;62772;48.646;8.906;2023-04-05T23:50:16;96475.59;;;-1.92;100.00
4598;BME280;62772;48.646;8.906;2023-04-05T23:55:16;96472.09;;;-2.40;100.00
